sensor_id;sensor_type;location;lat;lon;timestamp;P1;durP1;ratioP1;P2;durP2;ratioP2
80138;SDS011;69467;59.842;17.604;2023-04-24T00:02:07;0.17;;;0.10;;
80138;SDS011;69467;59.842;17.604;2023-04-24T00:04:35;0.10;;;0.10;;
80138;SDS011;69467;59.842;17.604;2023-04-24T00:07:05;0.40;;;0.22;;
80138;SDS011;69467;59.842;17.604;2023-04-24T00:09:31;1.55;;;0.17;;
80138;SDS011;69467;59.842;17.604;2023-04-24T00:11:57;0.20;;;0.15;;
80138;SDS011;69467;59.842;17.604;2023-04-24T00:14:23;0.10;;;0.10;;
80138;SDS011;69467;59.842;17.604;2023-04-24T00:16:48;0.20;;;0.10;;
80138;SDS011;69467;59.842;17.604;2023-04-24T00:19:13;0.10;;;0.10;;
80138;SDS011;69467;59.842;17.604;2023-04-24T00:21:39;0.30;;;0.20;;
80138;SDS011;69467;59.842;17.604;2023-04-24T00:24:05;0.50;;;0.30;;
80138;SDS011;69467;59.842;17.604;2023-04-24T00:26:31;0.85;;;0.57;;
80138;SDS011;69467;59.842;17.604;2023-04-24T00:28:56;0.70;;;0.65;;
80138;SDS011;69467;59.842;17.604;2023-04-24T00:31:22;0.57;;;0.45;;
80138;SDS011;69467;59.842;17.604;2023-04-24T00:33:47;0.60;;;0.50;;
80138;SDS011;69467;59.842;17.604;2023-04-24T00:36:13;0.88;;;0.73;;
80138;SDS011;69467;59.842;17.604;2023-04-24T00:38:38;1.27;;;0.98;;
80138;SDS011;69467;59.842;17.604;2023-04-24T00:41:03;1.85;;;1.50;;
80138;SDS011;69467;59.842;17.604;2023-04-24T00:43:29;1.92;;;1.23;;
80138;SDS011;69467;59.842;17.604;2023-04-24T00:45:54;1.77;;;1.67;;
80138;SDS011;69467;59.842;17.604;2023-04-24T00:48:20;1.40;;;1.27;;
80138;SDS011;69467;59.842;17.604;2023-04-24T00:50:46;2.35;;;2.00;;
80138;SDS011;69467;59.842;17.604;2023-04-24T00:53:11;2.05;;;1.75;;
80138;SDS011;69467;59.842;17.604;2023-04-24T00:55:37;1.83;;;1.52;;
80138;SDS011;69467;59.842;17.604;2023-04-24T00:58:02;1.98;;;1.88;;
80138;SDS011;69467;59.842;17.604;2023-04-24T01:00:28;1.90;;;1.70;;
80138;SDS011;69467;59.842;17.604;2023-04-24T01:02:55;2.17;;;1.98;;
80138;SDS011;69467;59.842;17.604;2023-04-24T01:05:20;2.22;;;1.95;;
80138;SDS011;69467;59.842;17.604;2023-04-24T01:07:46;1.80;;;1.70;;
80138;SDS011;69467;59.842;17.604;2023-04-24T01:10:14;2.45;;;1.70;;
80138;SDS011;69467;59.842;17.604;2023-04-24T01:15:05;1.48;;;1.30;;
80138;SDS011;69467;59.842;17.604;2023-04-24T01:19:57;2.22;;;1.80;;
80138;SDS011;69467;59.842;17.604;2023-04-24T01:22:25;2.10;;;1.95;;
80138;SDS011;69467;59.842;17.604;2023-04-24T01:24:51;2.25;;;2.05;;
80138;SDS011;69467;59.842;17.604;2023-04-24T01:27:17;2.53;;;1.10;;
80138;SDS011;69467;59.842;17.604;2023-04-24T01:29:42;3.83;;;1.73;;
80138;SDS011;69467;59.842;17.604;2023-04-24T01:32:08;1.75;;;1.55;;
80138;SDS011;69467;59.842;17.604;2023-04-24T01:34:33;3.63;;;1.75;;
80138;SDS011;69467;59.842;17.604;2023-04-24T01:36:59;4.60;;;2.08;;
80138;SDS011;69467;59.842;17.604;2023-04-24T01:39:25;3.75;;;2.05;;
80138;SDS011;69467;59.842;17.604;2023-04-24T01:41:53;3.03;;;1.65;;
80138;SDS011;69467;59.842;17.604;2023-04-24T01:46:45;1.95;;;1.80;;
80138;SDS011;69467;59.842;17.604;2023-04-24T01:49:10;2.28;;;1.70;;
80138;SDS011;69467;59.842;17.604;2023-04-24T01:51:36;6.72;;;1.33;;
80138;SDS011;69467;59.842;17.604;2023-04-24T01:54:01;3.00;;;1.20;;
80138;SDS011;69467;59.842;17.604;2023-04-24T01:56:28;1.55;;;1.08;;
80138;SDS011;69467;59.842;17.604;2023-04-24T01:58:55;2.28;;;1.55;;
80138;SDS011;69467;59.842;17.604;2023-04-24T02:01:23;0.75;;;0.57;;
80138;SDS011;69467;59.842;17.604;2023-04-24T02:03:49;0.98;;;0.88;;
80138;SDS011;69467;59.842;17.604;2023-04-24T02:06:15;1.27;;;1.17;;
80138;SDS011;69467;59.842;17.604;2023-04-24T02:08:40;2.50;;;1.38;;
80138;SDS011;69467;59.842;17.604;2023-04-24T02:11:06;0.75;;;0.75;;
80138;SDS011;69467;59.842;17.604;2023-04-24T02:13:33;2.55;;;2.35;;
80138;SDS011;69467;59.842;17.604;2023-04-24T02:15:58;1.70;;;0.98;;
80138;SDS011;69467;59.842;17.604;2023-04-24T02:18:24;2.45;;;1.33;;
80138;SDS011;69467;59.842;17.604;2023-04-24T02:20:49;1.95;;;1.00;;
80138;SDS011;69467;59.842;17.604;2023-04-24T02:23:15;3.13;;;1.25;;
80138;SDS011;69467;59.842;17.604;2023-04-24T02:25:40;1.02;;;0.93;;
80138;SDS011;69467;59.842;17.604;2023-04-24T02:28:06;1.42;;;0.85;;
80138;SDS011;69467;59.842;17.604;2023-04-24T02:30:31;0.70;;;0.70;;
80138;SDS011;69467;59.842;17.604;2023-04-24T02:32:57;1.48;;;1.15;;
80138;SDS011;69467;59.842;17.604;2023-04-24T02:35:22;1.02;;;0.88;;
80138;SDS011;69467;59.842;17.604;2023-04-24T02:37:48;1.02;;;0.85;;
80138;SDS011;69467;59.842;17.604;2023-04-24T02:40:13;1.42;;;0.77;;
80138;SDS011;69467;59.842;17.604;2023-04-24T02:42:38;1.30;;;1.20;;
80138;SDS011;69467;59.842;17.604;2023-04-24T02:45:04;1.08;;;0.90;;
80138;SDS011;69467;59.842;17.604;2023-04-24T02:47:30;0.73;;;0.73;;
80138;SDS011;69467;59.842;17.604;2023-04-24T02:49:55;1.80;;;1.70;;
80138;SDS011;69467;59.842;17.604;2023-04-24T02:52:21;1.08;;;0.60;;
80138;SDS011;69467;59.842;17.604;2023-04-24T02:54:46;0.60;;;0.60;;
80138;SDS011;69467;59.842;17.604;2023-04-24T02:57:11;0.70;;;0.70;;
80138;SDS011;69467;59.842;17.604;2023-04-24T02:59:37;1.65;;;1.27;;
80138;SDS011;69467;59.842;17.604;2023-04-24T03:02:02;1.40;;;1.10;;
80138;SDS011;69467;59.842;17.604;2023-04-24T03:04:28;0.90;;;0.52;;
80138;SDS011;69467;59.842;17.604;2023-04-24T03:06:53;1.40;;;1.10;;
80138;SDS011;69467;59.842;17.604;2023-04-24T03:09:20;2.10;;;1.08;;
80138;SDS011;69467;59.842;17.604;2023-04-24T03:11:46;1.65;;;0.75;;
80138;SDS011;69467;59.842;17.604;2023-04-24T03:14:12;0.50;;;0.45;;
80138;SDS011;69467;59.842;17.604;2023-04-24T03:16:37;1.10;;;1.00;;
80138;SDS011;69467;59.842;17.604;2023-04-24T03:19:03;1.58;;;1.00;;
80138;SDS011;69467;59.842;17.604;2023-04-24T03:21:28;1.92;;;0.93;;
80138;SDS011;69467;59.842;17.604;2023-04-24T03:23:54;1.23;;;1.13;;
80138;SDS011;69467;59.842;17.604;2023-04-24T03:26:19;1.38;;;1.27;;
80138;SDS011;69467;59.842;17.604;2023-04-24T03:28:45;2.97;;;1.55;;
80138;SDS011;69467;59.842;17.604;2023-04-24T03:31:10;1.40;;;1.30;;
80138;SDS011;69467;59.842;17.604;2023-04-24T03:33:36;2.90;;;1.38;;
80138;SDS011;69467;59.842;17.604;2023-04-24T03:36:01;1.63;;;1.50;;
80138;SDS011;69467;59.842;17.604;2023-04-24T03:38:27;1.60;;;1.50;;
80138;SDS011;69467;59.842;17.604;2023-04-24T03:40:52;1.55;;;1.45;;
80138;SDS011;69467;59.842;17.604;2023-04-24T03:43:18;2.03;;;1.60;;
80138;SDS011;69467;59.842;17.604;2023-04-24T03:45:43;1.90;;;1.20;;
80138;SDS011;69467;59.842;17.604;2023-04-24T03:48:09;2.13;;;1.92;;
80138;SDS011;69467;59.842;17.604;2023-04-24T03:50:34;1.77;;;1.67;;
80138;SDS011;69467;59.842;17.604;2023-04-24T03:53:00;1.60;;;1.15;;
80138;SDS011;69467;59.842;17.604;2023-04-24T03:55:25;2.05;;;1.85;;
80138;SDS011;69467;59.842;17.604;2023-04-24T03:57:50;1.45;;;1.15;;
80138;SDS011;69467;59.842;17.604;2023-04-24T04:00:16;1.40;;;1.08;;
80138;SDS011;69467;59.842;17.604;2023-04-24T04:02:41;2.50;;;1.48;;
80138;SDS011;69467;59.842;17.604;2023-04-24T04:05:07;2.47;;;1.92;;
80138;SDS011;69467;59.842;17.604;2023-04-24T04:07:33;1.95;;;1.60;;
80138;SDS011;69467;59.842;17.604;2023-04-24T04:09:59;2.00;;;1.73;;
80138;SDS011;69467;59.842;17.604;2023-04-24T04:12:24;2.83;;;2.63;;
80138;SDS011;69467;59.842;17.604;2023-04-24T04:14:49;1.70;;;1.55;;
80138;SDS011;69467;59.842;17.604;2023-04-24T04:17:15;4.50;;;3.60;;
80138;SDS011;69467;59.842;17.604;2023-04-24T04:19:40;4.18;;;2.55;;
80138;SDS011;69467;59.842;17.604;2023-04-24T04:24:33;2.10;;;1.92;;
80138;SDS011;69467;59.842;17.604;2023-04-24T04:26:58;3.80;;;2.88;;
80138;SDS011;69467;59.842;17.604;2023-04-24T04:29:25;2.88;;;2.58;;
80138;SDS011;69467;59.842;17.604;2023-04-24T04:31:50;5.50;;;2.92;;
80138;SDS011;69467;59.842;17.604;2023-04-24T04:34:17;3.05;;;2.78;;
80138;SDS011;69467;59.842;17.604;2023-04-24T04:36:43;4.32;;;3.92;;
80138;SDS011;69467;59.842;17.604;2023-04-24T04:39:09;3.38;;;2.80;;
80138;SDS011;69467;59.842;17.604;2023-04-24T04:41:34;4.72;;;3.25;;
80138;SDS011;69467;59.842;17.604;2023-04-24T04:44:00;4.05;;;3.25;;
80138;SDS011;69467;59.842;17.604;2023-04-24T04:46:29;7.45;;;3.60;;
80138;SDS011;69467;59.842;17.604;2023-04-24T04:48:57;3.65;;;3.35;;
80138;SDS011;69467;59.842;17.604;2023-04-24T04:51:23;5.95;;;4.07;;
80138;SDS011;69467;59.842;17.604;2023-04-24T04:53:48;4.30;;;3.70;;
80138;SDS011;69467;59.842;17.604;2023-04-24T04:56:14;4.40;;;3.47;;
80138;SDS011;69467;59.842;17.604;2023-04-24T04:58:40;9.00;;;4.85;;
80138;SDS011;69467;59.842;17.604;2023-04-24T05:01:05;3.60;;;3.22;;
80138;SDS011;69467;59.842;17.604;2023-04-24T05:03:31;5.47;;;3.65;;
80138;SDS011;69467;59.842;17.604;2023-04-24T05:05:57;4.35;;;3.42;;
80138;SDS011;69467;59.842;17.604;2023-04-24T05:08:23;8.43;;;4.95;;
80138;SDS011;69467;59.842;17.604;2023-04-24T05:10:48;5.78;;;4.68;;
80138;SDS011;69467;59.842;17.604;2023-04-24T05:13:13;6.72;;;4.28;;
80138;SDS011;69467;59.842;17.604;2023-04-24T05:15:39;6.53;;;4.82;;
80138;SDS011;69467;59.842;17.604;2023-04-24T05:18:04;7.63;;;5.00;;
80138;SDS011;69467;59.842;17.604;2023-04-24T05:20:30;7.75;;;4.60;;
80138;SDS011;69467;59.842;17.604;2023-04-24T05:22:55;6.45;;;5.20;;
80138;SDS011;69467;59.842;17.604;2023-04-24T05:25:21;11.52;;;5.43;;
80138;SDS011;69467;59.842;17.604;2023-04-24T05:27:46;9.25;;;5.28;;
80138;SDS011;69467;59.842;17.604;2023-04-24T05:30:12;9.32;;;4.50;;
80138;SDS011;69467;59.842;17.604;2023-04-24T05:32:37;6.97;;;4.82;;
80138;SDS011;69467;59.842;17.604;2023-04-24T05:35:03;13.07;;;4.63;;
80138;SDS011;69467;59.842;17.604;2023-04-24T05:37:28;7.18;;;5.18;;
80138;SDS011;69467;59.842;17.604;2023-04-24T05:39:54;5.63;;;4.88;;
80138;SDS011;69467;59.842;17.604;2023-04-24T05:42:19;8.35;;;5.28;;
80138;SDS011;69467;59.842;17.604;2023-04-24T05:44:45;5.65;;;4.80;;
80138;SDS011;69467;59.842;17.604;2023-04-24T05:47:10;13.48;;;5.68;;
80138;SDS011;69467;59.842;17.604;2023-04-24T05:49:36;9.77;;;6.22;;
80138;SDS011;69467;59.842;17.604;2023-04-24T05:52:01;7.53;;;5.55;;
80138;SDS011;69467;59.842;17.604;2023-04-24T05:54:29;10.13;;;5.57;;
80138;SDS011;69467;59.842;17.604;2023-04-24T05:56:54;9.20;;;5.22;;
80138;SDS011;69467;59.842;17.604;2023-04-24T05:59:20;7.90;;;4.05;;
80138;SDS011;69467;59.842;17.604;2023-04-24T06:01:46;4.65;;;4.15;;
80138;SDS011;69467;59.842;17.604;2023-04-24T06:04:11;7.00;;;3.90;;
80138;SDS011;69467;59.842;17.604;2023-04-24T06:06:38;7.70;;;3.88;;
80138;SDS011;69467;59.842;17.604;2023-04-24T06:09:03;6.72;;;3.60;;
80138;SDS011;69467;59.842;17.604;2023-04-24T06:11:29;6.65;;;4.20;;
80138;SDS011;69467;59.842;17.604;2023-04-24T06:13:55;5.65;;;4.10;;
80138;SDS011;69467;59.842;17.604;2023-04-24T06:16:20;7.15;;;4.30;;
80138;SDS011;69467;59.842;17.604;2023-04-24T06:18:46;7.32;;;5.15;;
80138;SDS011;69467;59.842;17.604;2023-04-24T06:23:37;7.10;;;4.07;;
80138;SDS011;69467;59.842;17.604;2023-04-24T06:26:03;4.82;;;3.10;;
80138;SDS011;69467;59.842;17.604;2023-04-24T06:28:28;6.68;;;3.83;;
80138;SDS011;69467;59.842;17.604;2023-04-24T06:30:54;4.70;;;3.75;;
80138;SDS011;69467;59.842;17.604;2023-04-24T06:33:19;5.80;;;4.25;;
80138;SDS011;69467;59.842;17.604;2023-04-24T06:35:45;9.68;;;3.70;;
80138;SDS011;69467;59.842;17.604;2023-04-24T06:38:10;6.25;;;3.85;;
80138;SDS011;69467;59.842;17.604;2023-04-24T06:40:36;5.57;;;4.35;;
80138;SDS011;69467;59.842;17.604;2023-04-24T06:43:02;3.70;;;3.40;;
80138;SDS011;69467;59.842;17.604;2023-04-24T06:45:28;6.00;;;3.33;;
80138;SDS011;69467;59.842;17.604;2023-04-24T06:47:54;8.55;;;5.05;;
80138;SDS011;69467;59.842;17.604;2023-04-24T06:50:19;2.75;;;2.10;;
80138;SDS011;69467;59.842;17.604;2023-04-24T06:52:45;3.67;;;2.33;;
80138;SDS011;69467;59.842;17.604;2023-04-24T06:55:10;5.53;;;3.10;;
80138;SDS011;69467;59.842;17.604;2023-04-24T06:57:36;3.78;;;2.05;;
80138;SDS011;69467;59.842;17.604;2023-04-24T07:00:02;3.47;;;2.42;;
80138;SDS011;69467;59.842;17.604;2023-04-24T07:02:30;3.03;;;2.17;;
80138;SDS011;69467;59.842;17.604;2023-04-24T07:04:55;2.75;;;1.83;;
80138;SDS011;69467;59.842;17.604;2023-04-24T07:07:21;5.38;;;2.25;;
80138;SDS011;69467;59.842;17.604;2023-04-24T07:09:48;6.82;;;2.38;;
80138;SDS011;69467;59.842;17.604;2023-04-24T07:12:15;6.15;;;2.20;;
80138;SDS011;69467;59.842;17.604;2023-04-24T07:14:42;6.15;;;2.28;;
80138;SDS011;69467;59.842;17.604;2023-04-24T07:17:08;2.95;;;2.30;;
80138;SDS011;69467;59.842;17.604;2023-04-24T07:19:33;5.90;;;2.85;;
80138;SDS011;69467;59.842;17.604;2023-04-24T07:22:00;6.40;;;2.70;;
80138;SDS011;69467;59.842;17.604;2023-04-24T07:24:26;4.72;;;2.20;;
80138;SDS011;69467;59.842;17.604;2023-04-24T07:26:51;2.65;;;2.40;;
80138;SDS011;69467;59.842;17.604;2023-04-24T07:29:18;4.70;;;2.40;;
80138;SDS011;69467;59.842;17.604;2023-04-24T07:31:44;5.32;;;2.58;;
80138;SDS011;69467;59.842;17.604;2023-04-24T07:34:10;4.00;;;2.55;;
80138;SDS011;69467;59.842;17.604;2023-04-24T07:36:35;31.92;;;5.07;;
80138;SDS011;69467;59.842;17.604;2023-04-24T07:39:03;3.45;;;1.83;;
80138;SDS011;69467;59.842;17.604;2023-04-24T07:41:29;4.85;;;1.80;;
80138;SDS011;69467;59.842;17.604;2023-04-24T07:43:54;2.63;;;2.13;;
80138;SDS011;69467;59.842;17.604;2023-04-24T07:46:20;2.92;;;1.73;;
80138;SDS011;69467;59.842;17.604;2023-04-24T07:48:46;7.72;;;1.80;;
80138;SDS011;69467;59.842;17.604;2023-04-24T07:51:13;7.90;;;2.60;;
80138;SDS011;69467;59.842;17.604;2023-04-24T07:53:40;9.55;;;2.53;;
80138;SDS011;69467;59.842;17.604;2023-04-24T07:56:06;3.15;;;1.48;;
80138;SDS011;69467;59.842;17.604;2023-04-24T07:58:31;1.90;;;1.45;;
80138;SDS011;69467;59.842;17.604;2023-04-24T08:00:56;5.88;;;1.70;;
80138;SDS011;69467;59.842;17.604;2023-04-24T08:03:22;3.95;;;1.55;;
80138;SDS011;69467;59.842;17.604;2023-04-24T08:05:47;2.58;;;1.25;;
80138;SDS011;69467;59.842;17.604;2023-04-24T08:08:13;6.10;;;2.33;;
80138;SDS011;69467;59.842;17.604;2023-04-24T08:10:38;2.35;;;1.23;;
80138;SDS011;69467;59.842;17.604;2023-04-24T08:13:04;1.85;;;1.50;;
80138;SDS011;69467;59.842;17.604;2023-04-24T08:15:30;1.40;;;1.17;;
80138;SDS011;69467;59.842;17.604;2023-04-24T08:17:55;4.15;;;1.60;;
80138;SDS011;69467;59.842;17.604;2023-04-24T08:20:22;7.63;;;1.77;;
80138;SDS011;69467;59.842;17.604;2023-04-24T08:22:47;4.55;;;1.98;;
80138;SDS011;69467;59.842;17.604;2023-04-24T08:27:39;5.22;;;1.50;;
80138;SDS011;69467;59.842;17.604;2023-04-24T08:30:05;3.75;;;2.22;;
80138;SDS011;69467;59.842;17.604;2023-04-24T08:32:31;2.60;;;2.17;;
80138;SDS011;69467;59.842;17.604;2023-04-24T08:34:57;1.20;;;1.10;;
80138;SDS011;69467;59.842;17.604;2023-04-24T08:37:25;3.28;;;1.92;;
80138;SDS011;69467;59.842;17.604;2023-04-24T08:39:51;2.10;;;1.90;;
80138;SDS011;69467;59.842;17.604;2023-04-24T08:42:17;1.52;;;1.42;;
80138;SDS011;69467;59.842;17.604;2023-04-24T08:44:44;1.90;;;1.67;;
80138;SDS011;69467;59.842;17.604;2023-04-24T08:47:10;4.32;;;2.25;;
80138;SDS011;69467;59.842;17.604;2023-04-24T08:49:36;1.88;;;1.60;;
80138;SDS011;69467;59.842;17.604;2023-04-24T08:52:03;3.67;;;2.00;;
80138;SDS011;69467;59.842;17.604;2023-04-24T08:54:30;6.22;;;2.22;;
80138;SDS011;69467;59.842;17.604;2023-04-24T08:56:58;3.58;;;2.53;;
80138;SDS011;69467;59.842;17.604;2023-04-24T08:59:26;3.30;;;1.90;;
80138;SDS011;69467;59.842;17.604;2023-04-24T09:01:55;6.53;;;2.05;;
80138;SDS011;69467;59.842;17.604;2023-04-24T09:04:22;5.20;;;1.95;;
80138;SDS011;69467;59.842;17.604;2023-04-24T09:06:53;4.55;;;1.40;;
80138;SDS011;69467;59.842;17.604;2023-04-24T09:09:21;6.15;;;2.10;;
80138;SDS011;69467;59.842;17.604;2023-04-24T09:11:48;4.05;;;1.95;;
80138;SDS011;69467;59.842;17.604;2023-04-24T09:14:15;7.20;;;1.83;;
80138;SDS011;69467;59.842;17.604;2023-04-24T09:16:41;1.90;;;1.80;;
80138;SDS011;69467;59.842;17.604;2023-04-24T09:19:06;3.85;;;1.80;;
80138;SDS011;69467;59.842;17.604;2023-04-24T09:21:32;7.15;;;2.22;;
80138;SDS011;69467;59.842;17.604;2023-04-24T09:23:59;7.28;;;2.92;;
80138;SDS011;69467;59.842;17.604;2023-04-24T09:26:26;9.77;;;2.20;;
80138;SDS011;69467;59.842;17.604;2023-04-24T09:28:56;4.93;;;2.80;;
80138;SDS011;69467;59.842;17.604;2023-04-24T09:31:21;3.33;;;1.80;;
80138;SDS011;69467;59.842;17.604;2023-04-24T09:33:55;5.88;;;3.08;;
80138;SDS011;69467;59.842;17.604;2023-04-24T09:36:29;3.17;;;2.33;;
80138;SDS011;69467;59.842;17.604;2023-04-24T09:39:01;3.10;;;2.20;;
80138;SDS011;69467;59.842;17.604;2023-04-24T09:41:28;4.07;;;2.28;;
80138;SDS011;69467;59.842;17.604;2023-04-24T09:43:56;9.75;;;2.67;;
80138;SDS011;69467;59.842;17.604;2023-04-24T09:46:30;5.75;;;1.98;;
80138;SDS011;69467;59.842;17.604;2023-04-24T09:49:07;4.90;;;2.67;;
80138;SDS011;69467;59.842;17.604;2023-04-24T09:51:37;6.80;;;4.15;;
80138;SDS011;69467;59.842;17.604;2023-04-24T09:54:04;4.80;;;1.90;;
80138;SDS011;69467;59.842;17.604;2023-04-24T09:56:35;4.78;;;2.50;;
80138;SDS011;69467;59.842;17.604;2023-04-24T09:59:07;5.07;;;2.20;;
80138;SDS011;69467;59.842;17.604;2023-04-24T10:01:33;8.55;;;2.00;;
80138;SDS011;69467;59.842;17.604;2023-04-24T10:03:59;15.88;;;10.27;;
80138;SDS011;69467;59.842;17.604;2023-04-24T10:07:57;5.75;;;2.22;;
80138;SDS011;69467;59.842;17.604;2023-04-24T10:10:28;10.10;;;2.45;;
80138;SDS011;69467;59.842;17.604;2023-04-24T10:12:54;5.07;;;2.88;;
80138;SDS011;69467;59.842;17.604;2023-04-24T10:15:21;5.15;;;2.08;;
80138;SDS011;69467;59.842;17.604;2023-04-24T10:17:47;2.63;;;2.20;;
80138;SDS011;69467;59.842;17.604;2023-04-24T10:20:20;8.52;;;2.90;;
80138;SDS011;69467;59.842;17.604;2023-04-24T10:22:50;3.53;;;1.88;;
80138;SDS011;69467;59.842;17.604;2023-04-24T10:25:20;10.90;;;3.15;;
80138;SDS011;69467;59.842;17.604;2023-04-24T10:27:47;10.80;;;3.00;;
80138;SDS011;69467;59.842;17.604;2023-04-24T10:30:14;6.88;;;1.90;;
80138;SDS011;69467;59.842;17.604;2023-04-24T10:32:40;7.13;;;3.17;;
80138;SDS011;69467;59.842;17.604;2023-04-24T10:35:06;28.40;;;3.95;;
80138;SDS011;69467;59.842;17.604;2023-04-24T10:37:39;9.32;;;3.42;;
80138;SDS011;69467;59.842;17.604;2023-04-24T10:40:09;7.82;;;3.17;;
80138;SDS011;69467;59.842;17.604;2023-04-24T10:45:04;4.60;;;2.78;;
80138;SDS011;69467;59.842;17.604;2023-04-24T10:47:39;6.38;;;1.85;;
80138;SDS011;69467;59.842;17.604;2023-04-24T10:50:08;5.57;;;2.00;;
80138;SDS011;69467;59.842;17.604;2023-04-24T10:52:44;11.70;;;3.10;;
80138;SDS011;69467;59.842;17.604;2023-04-24T10:55:13;3.03;;;1.90;;
80138;SDS011;69467;59.842;17.604;2023-04-24T10:57:40;10.93;;;3.53;;
80138;SDS011;69467;59.842;17.604;2023-04-24T11:00:26;2.65;;;1.80;;
80138;SDS011;69467;59.842;17.604;2023-04-24T11:02:52;3.03;;;1.92;;
80138;SDS011;69467;59.842;17.604;2023-04-24T11:05:18;3.42;;;1.92;;
80138;SDS011;69467;59.842;17.604;2023-04-24T11:10:44;14.90;;;5.78;;
80138;SDS011;69467;59.842;17.604;2023-04-24T11:13:13;7.10;;;2.15;;
80138;SDS011;69467;59.842;17.604;2023-04-24T11:15:41;2.90;;;2.22;;
80138;SDS011;69467;59.842;17.604;2023-04-24T11:18:07;2.78;;;2.47;;
80138;SDS011;69467;59.842;17.604;2023-04-24T11:20:47;8.63;;;2.25;;
80138;SDS011;69467;59.842;17.604;2023-04-24T11:23:13;4.70;;;2.30;;
80138;SDS011;69467;59.842;17.604;2023-04-24T11:28:05;2.75;;;2.10;;
80138;SDS011;69467;59.842;17.604;2023-04-24T11:30:31;4.57;;;3.60;;
80138;SDS011;69467;59.842;17.604;2023-04-24T11:33:01;8.88;;;3.35;;
80138;SDS011;69467;59.842;17.604;2023-04-24T11:35:30;3.20;;;2.53;;
80138;SDS011;69467;59.842;17.604;2023-04-24T11:38:02;6.80;;;3.03;;
80138;SDS011;69467;59.842;17.604;2023-04-24T11:40:28;3.15;;;2.85;;
80138;SDS011;69467;59.842;17.604;2023-04-24T11:42:53;2.90;;;2.40;;
80138;SDS011;69467;59.842;17.604;2023-04-24T11:45:25;5.13;;;3.17;;
80138;SDS011;69467;59.842;17.604;2023-04-24T11:47:52;8.88;;;2.70;;
80138;SDS011;69467;59.842;17.604;2023-04-24T11:50:18;8.50;;;3.70;;
80138;SDS011;69467;59.842;17.604;2023-04-24T11:52:45;6.25;;;3.30;;
80138;SDS011;69467;59.842;17.604;2023-04-24T11:57:47;7.30;;;2.42;;
80138;SDS011;69467;59.842;17.604;2023-04-24T12:00:21;12.93;;;1.90;;
80138;SDS011;69467;59.842;17.604;2023-04-24T12:02:48;9.55;;;2.70;;
80138;SDS011;69467;59.842;17.604;2023-04-24T12:05:27;5.97;;;1.98;;
80138;SDS011;69467;59.842;17.604;2023-04-24T12:07:53;10.18;;;3.28;;
80138;SDS011;69467;59.842;17.604;2023-04-24T12:10:25;8.95;;;3.40;;
80138;SDS011;69467;59.842;17.604;2023-04-24T12:12:52;13.40;;;1.92;;
80138;SDS011;69467;59.842;17.604;2023-04-24T12:17:45;2.75;;;1.95;;
80138;SDS011;69467;59.842;17.604;2023-04-24T12:20:11;5.65;;;3.22;;
80138;SDS011;69467;59.842;17.604;2023-04-24T12:22:46;6.03;;;2.13;;
80138;SDS011;69467;59.842;17.604;2023-04-24T12:25:16;6.03;;;2.28;;
80138;SDS011;69467;59.842;17.604;2023-04-24T12:27:45;4.53;;;2.67;;
80138;SDS011;69467;59.842;17.604;2023-04-24T12:30:16;3.05;;;2.53;;
80138;SDS011;69467;59.842;17.604;2023-04-24T12:32:45;8.35;;;2.40;;
80138;SDS011;69467;59.842;17.604;2023-04-24T12:35:25;3.45;;;2.33;;
80138;SDS011;69467;59.842;17.604;2023-04-24T12:37:52;16.92;;;3.85;;
80138;SDS011;69467;59.842;17.604;2023-04-24T12:40:20;14.05;;;3.80;;
80138;SDS011;69467;59.842;17.604;2023-04-24T12:42:47;15.05;;;6.97;;
80138;SDS011;69467;59.842;17.604;2023-04-24T12:45:14;6.50;;;3.10;;
80138;SDS011;69467;59.842;17.604;2023-04-24T12:47:41;13.88;;;4.05;;
80138;SDS011;69467;59.842;17.604;2023-04-24T12:50:07;6.25;;;2.60;;
80138;SDS011;69467;59.842;17.604;2023-04-24T12:52:34;3.72;;;3.10;;
80138;SDS011;69467;59.842;17.604;2023-04-24T12:55:00;32.63;;;5.72;;
80138;SDS011;69467;59.842;17.604;2023-04-24T12:57:27;5.07;;;2.83;;
80138;SDS011;69467;59.842;17.604;2023-04-24T12:59:54;8.95;;;3.40;;
80138;SDS011;69467;59.842;17.604;2023-04-24T13:02:32;5.80;;;3.97;;
80138;SDS011;69467;59.842;17.604;2023-04-24T13:04:58;6.10;;;3.25;;
80138;SDS011;69467;59.842;17.604;2023-04-24T13:09:50;5.35;;;2.38;;
80138;SDS011;69467;59.842;17.604;2023-04-24T13:12:17;4.25;;;3.63;;
80138;SDS011;69467;59.842;17.604;2023-04-24T13:17:08;8.40;;;3.67;;
80138;SDS011;69467;59.842;17.604;2023-04-24T13:19:38;12.15;;;3.83;;
80138;SDS011;69467;59.842;17.604;2023-04-24T13:22:05;26.20;;;4.47;;
80138;SDS011;69467;59.842;17.604;2023-04-24T13:24:31;10.38;;;3.58;;
80138;SDS011;69467;59.842;17.604;2023-04-24T13:26:57;11.02;;;3.08;;
80138;SDS011;69467;59.842;17.604;2023-04-24T13:29:23;10.23;;;3.05;;
80138;SDS011;69467;59.842;17.604;2023-04-24T13:31:51;9.27;;;3.30;;
80138;SDS011;69467;59.842;17.604;2023-04-24T13:34:19;3.85;;;2.42;;
80138;SDS011;69467;59.842;17.604;2023-04-24T13:36:45;6.90;;;3.60;;
80138;SDS011;69467;59.842;17.604;2023-04-24T13:39:11;7.45;;;3.65;;
80138;SDS011;69467;59.842;17.604;2023-04-24T13:41:36;8.88;;;3.83;;
80138;SDS011;69467;59.842;17.604;2023-04-24T13:44:02;10.43;;;4.07;;
80138;SDS011;69467;59.842;17.604;2023-04-24T13:46:28;7.85;;;3.03;;
80138;SDS011;69467;59.842;17.604;2023-04-24T13:48:54;10.90;;;3.88;;
80138;SDS011;69467;59.842;17.604;2023-04-24T13:51:19;4.70;;;3.33;;
80138;SDS011;69467;59.842;17.604;2023-04-24T13:53:45;10.73;;;4.13;;
80138;SDS011;69467;59.842;17.604;2023-04-24T13:56:10;13.25;;;3.50;;
80138;SDS011;69467;59.842;17.604;2023-04-24T13:58:37;6.30;;;3.63;;
80138;SDS011;69467;59.842;17.604;2023-04-24T14:01:03;15.65;;;4.72;;
80138;SDS011;69467;59.842;17.604;2023-04-24T14:03:29;10.07;;;4.30;;
80138;SDS011;69467;59.842;17.604;2023-04-24T14:05:54;7.93;;;3.65;;
80138;SDS011;69467;59.842;17.604;2023-04-24T14:08:20;4.85;;;3.65;;
80138;SDS011;69467;59.842;17.604;2023-04-24T14:10:45;12.35;;;4.00;;
80138;SDS011;69467;59.842;17.604;2023-04-24T14:13:11;8.55;;;3.63;;
80138;SDS011;69467;59.842;17.604;2023-04-24T14:15:37;7.15;;;3.90;;
80138;SDS011;69467;59.842;17.604;2023-04-24T14:18:02;30.92;;;5.63;;
80138;SDS011;69467;59.842;17.604;2023-04-24T14:20:28;11.90;;;4.05;;
80138;SDS011;69467;59.842;17.604;2023-04-24T14:22:54;11.90;;;4.53;;
80138;SDS011;69467;59.842;17.604;2023-04-24T14:25:19;4.82;;;3.15;;
80138;SDS011;69467;59.842;17.604;2023-04-24T14:27:45;17.40;;;4.47;;
80138;SDS011;69467;59.842;17.604;2023-04-24T14:30:12;22.60;;;6.07;;
80138;SDS011;69467;59.842;17.604;2023-04-24T14:32:38;10.05;;;3.97;;
80138;SDS011;69467;59.842;17.604;2023-04-24T14:37:29;9.38;;;3.78;;
80138;SDS011;69467;59.842;17.604;2023-04-24T14:39:55;6.97;;;3.47;;
80138;SDS011;69467;59.842;17.604;2023-04-24T14:42:20;7.97;;;2.80;;
80138;SDS011;69467;59.842;17.604;2023-04-24T14:44:46;6.97;;;3.00;;
80138;SDS011;69467;59.842;17.604;2023-04-24T14:47:11;11.27;;;3.30;;
80138;SDS011;69467;59.842;17.604;2023-04-24T14:49:36;4.80;;;3.15;;
80138;SDS011;69467;59.842;17.604;2023-04-24T14:52:02;14.77;;;3.88;;
80138;SDS011;69467;59.842;17.604;2023-04-24T14:54:28;13.43;;;3.63;;
80138;SDS011;69467;59.842;17.604;2023-04-24T14:56:54;4.90;;;3.65;;
80138;SDS011;69467;59.842;17.604;2023-04-24T14:59:22;4.95;;;2.70;;
80138;SDS011;69467;59.842;17.604;2023-04-24T15:01:47;15.15;;;4.18;;
80138;SDS011;69467;59.842;17.604;2023-04-24T15:04:12;9.38;;;2.97;;
80138;SDS011;69467;59.842;17.604;2023-04-24T15:06:38;9.73;;;4.32;;